sensor_id;sensor_type;location;lat;lon;timestamp;temperature;humidity
27795;DHT22;15176;50.844;4.412;2023-03-17T00:01:09;13.60;86.10
27795;DHT22;15176;50.844;4.412;2023-03-17T00:03:37;13.50;86.40
27795;DHT22;15176;50.844;4.412;2023-03-17T00:06:05;13.50;87.10
27795;DHT22;15176;50.844;4.412;2023-03-17T00:08:33;13.80;85.90
27795;DHT22;15176;50.844;4.412;2023-03-17T00:11:00;13.80;85.20
27795;DHT22;15176;50.844;4.412;2023-03-17T00:13:26;13.70;87.10
27795;DHT22;15176;50.844;4.412;2023-03-17T00:15:55;13.90;85.70
27795;DHT22;15176;50.844;4.412;2023-03-17T00:18:23;13.90;85.50
27795;DHT22;15176;50.844;4.412;2023-03-17T00:20:48;13.90;84.90
27795;DHT22;15176;50.844;4.412;2023-03-17T00:23:17;13.70;86.20
27795;DHT22;15176;50.844;4.412;2023-03-17T00:25:44;13.80;86.90
27795;DHT22;15176;50.844;4.412;2023-03-17T00:28:22;13.80;84.70
27795;DHT22;15176;50.844;4.412;2023-03-17T00:30:52;13.80;84.80
27795;DHT22;15176;50.844;4.412;2023-03-17T00:33:22;13.80;84.40
27795;DHT22;15176;50.844;4.412;2023-03-17T00:35:48;14.10;85.20
27795;DHT22;15176;50.844;4.412;2023-03-17T00:38:22;14.20;84.50
27795;DHT22;15176;50.844;4.412;2023-03-17T00:40:50;13.90;83.90
27795;DHT22;15176;50.844;4.412;2023-03-17T00:43:16;14.20;86.40
27795;DHT22;15176;50.844;4.412;2023-03-17T00:45:48;14.50;82.20
27795;DHT22;15176;50.844;4.412;2023-03-17T00:48:17;14.60;84.40
27795;DHT22;15176;50.844;4.412;2023-03-17T00:50:44;14.50;82.10
27795;DHT22;15176;50.844;4.412;2023-03-17T00:53:15;14.00;84.30
27795;DHT22;15176;50.844;4.412;2023-03-17T00:55:42;13.70;84.40
27795;DHT22;15176;50.844;4.412;2023-03-17T00:58:26;13.60;87.00
27795;DHT22;15176;50.844;4.412;2023-03-17T01:00:53;13.60;85.70
27795;DHT22;15176;50.844;4.412;2023-03-17T01:03:20;13.70;84.90
27795;DHT22;15176;50.844;4.412;2023-03-17T01:05:48;13.50;87.10
27795;DHT22;15176;50.844;4.412;2023-03-17T01:08:14;13.90;89.50
27795;DHT22;15176;50.844;4.412;2023-03-17T01:10:41;14.00;85.90
27795;DHT22;15176;50.844;4.412;2023-03-17T01:13:11;13.70;85.30
27795;DHT22;15176;50.844;4.412;2023-03-17T01:15:40;13.60;86.90
27795;DHT22;15176;50.844;4.412;2023-03-17T01:18:09;13.50;87.70
27795;DHT22;15176;50.844;4.412;2023-03-17T01:20:37;13.50;87.70
27795;DHT22;15176;50.844;4.412;2023-03-17T01:23:03;13.40;87.90
27795;DHT22;15176;50.844;4.412;2023-03-17T01:25:30;13.50;87.40
27795;DHT22;15176;50.844;4.412;2023-03-17T01:28:02;13.40;89.00
27795;DHT22;15176;50.844;4.412;2023-03-17T01:30:29;13.60;87.50
27795;DHT22;15176;50.844;4.412;2023-03-17T01:32:56;14.00;86.60
27795;DHT22;15176;50.844;4.412;2023-03-17T01:35:24;13.90;85.70
27795;DHT22;15176;50.844;4.412;2023-03-17T01:37:50;14.00;86.20
27795;DHT22;15176;50.844;4.412;2023-03-17T01:40:23;13.90;86.50
27795;DHT22;15176;50.844;4.412;2023-03-17T01:42:58;13.80;88.10
27795;DHT22;15176;50.844;4.412;2023-03-17T01:48:34;13.90;85.80
27795;DHT22;15176;50.844;4.412;2023-03-17T01:51:02;13.80;86.90
27795;DHT22;15176;50.844;4.412;2023-03-17T01:53:28;13.70;87.40
27795;DHT22;15176;50.844;4.412;2023-03-17T01:55:55;13.70;86.20
27795;DHT22;15176;50.844;4.412;2023-03-17T01:58:23;13.50;87.80
27795;DHT22;15176;50.844;4.412;2023-03-17T02:00:50;13.60;88.30
27795;DHT22;15176;50.844;4.412;2023-03-17T02:03:16;13.40;88.20
27795;DHT22;15176;50.844;4.412;2023-03-17T02:05:50;13.60;87.80
27795;DHT22;15176;50.844;4.412;2023-03-17T02:08:17;13.60;89.60
27795;DHT22;15176;50.844;4.412;2023-03-17T02:10:44;13.40;88.10
27795;DHT22;15176;50.844;4.412;2023-03-17T02:13:11;13.40;88.50
27795;DHT22;15176;50.844;4.412;2023-03-17T02:18:14;13.40;89.40
27795;DHT22;15176;50.844;4.412;2023-03-17T02:23:06;13.40;89.20
27795;DHT22;15176;50.844;4.412;2023-03-17T02:25:33;13.50;90.00
27795;DHT22;15176;50.844;4.412;2023-03-17T02:28:08;13.50;88.60
27795;DHT22;15176;50.844;4.412;2023-03-17T02:30:41;13.40;89.90
27795;DHT22;15176;50.844;4.412;2023-03-17T02:33:08;13.40;88.50
27795;DHT22;15176;50.844;4.412;2023-03-17T02:35:34;13.40;90.00
27795;DHT22;15176;50.844;4.412;2023-03-17T02:38:01;13.40;91.10
27795;DHT22;15176;50.844;4.412;2023-03-17T02:40:26;13.70;89.90
27795;DHT22;15176;50.844;4.412;2023-03-17T02:42:53;13.70;88.10
27795;DHT22;15176;50.844;4.412;2023-03-17T02:45:19;13.40;88.30
27795;DHT22;15176;50.844;4.412;2023-03-17T02:47:52;13.40;90.10
27795;DHT22;15176;50.844;4.412;2023-03-17T02:50:21;13.20;90.10
27795;DHT22;15176;50.844;4.412;2023-03-17T02:52:48;13.40;90.10
27795;DHT22;15176;50.844;4.412;2023-03-17T02:55:14;13.20;90.60
27795;DHT22;15176;50.844;4.412;2023-03-17T02:57:40;13.10;90.70
27795;DHT22;15176;50.844;4.412;2023-03-17T03:00:07;13.00;91.60
27795;DHT22;15176;50.844;4.412;2023-03-17T03:02:38;13.10;90.60
27795;DHT22;15176;50.844;4.412;2023-03-17T03:05:04;13.10;90.50
27795;DHT22;15176;50.844;4.412;2023-03-17T03:07:32;12.90;91.20
27795;DHT22;15176;50.844;4.412;2023-03-17T03:09:58;12.90;91.50
27795;DHT22;15176;50.844;4.412;2023-03-17T03:12:24;12.70;91.50
27795;DHT22;15176;50.844;4.412;2023-03-17T03:14:49;12.60;92.40
27795;DHT22;15176;50.844;4.412;2023-03-17T03:17:15;12.70;92.90
27795;DHT22;15176;50.844;4.412;2023-03-17T03:19:41;12.90;91.80
27795;DHT22;15176;50.844;4.412;2023-03-17T03:22:07;13.00;91.80
27795;DHT22;15176;50.844;4.412;2023-03-17T03:24:39;12.90;92.50
27795;DHT22;15176;50.844;4.412;2023-03-17T03:27:06;13.10;91.70
27795;DHT22;15176;50.844;4.412;2023-03-17T03:29:38;13.00;92.20
27795;DHT22;15176;50.844;4.412;2023-03-17T03:32:03;13.20;91.50
27795;DHT22;15176;50.844;4.412;2023-03-17T03:34:29;12.90;92.20
27795;DHT22;15176;50.844;4.412;2023-03-17T03:36:54;12.80;92.00
27795;DHT22;15176;50.844;4.412;2023-03-17T03:39:20;12.60;92.50
27795;DHT22;15176;50.844;4.412;2023-03-17T03:41:46;12.70;93.00
27795;DHT22;15176;50.844;4.412;2023-03-17T03:44:11;12.70;93.20
27795;DHT22;15176;50.844;4.412;2023-03-17T03:46:37;12.80;93.40
27795;DHT22;15176;50.844;4.412;2023-03-17T03:49:03;12.70;93.00
27795;DHT22;15176;50.844;4.412;2023-03-17T03:51:34;12.80;92.80
27795;DHT22;15176;50.844;4.412;2023-03-17T03:54:00;12.90;92.30
27795;DHT22;15176;50.844;4.412;2023-03-17T03:56:32;12.80;92.70
27795;DHT22;15176;50.844;4.412;2023-03-17T03:58:58;12.80;92.70
27795;DHT22;15176;50.844;4.412;2023-03-17T04:01:24;12.90;93.00
27795;DHT22;15176;50.844;4.412;2023-03-17T04:03:49;13.00;93.20
27795;DHT22;15176;50.844;4.412;2023-03-17T04:06:16;12.90;93.00
27795;DHT22;15176;50.844;4.412;2023-03-17T04:08:47;12.90;92.70
27795;DHT22;15176;50.844;4.412;2023-03-17T04:11:15;13.00;92.40
27795;DHT22;15176;50.844;4.412;2023-03-17T04:13:47;13.10;91.90
27795;DHT22;15176;50.844;4.412;2023-03-17T04:16:13;13.30;92.00
27795;DHT22;15176;50.844;4.412;2023-03-17T04:18:39;13.10;92.40
27795;DHT22;15176;50.844;4.412;2023-03-17T04:21:04;13.20;92.40
27795;DHT22;15176;50.844;4.412;2023-03-17T04:23:31;12.90;92.30
27795;DHT22;15176;50.844;4.412;2023-03-17T04:25:57;12.90;92.60
27795;DHT22;15176;50.844;4.412;2023-03-17T04:28:28;12.70;93.00
27795;DHT22;15176;50.844;4.412;2023-03-17T04:30:54;12.60;93.80
27795;DHT22;15176;50.844;4.412;2023-03-17T04:33:20;12.70;93.50
27795;DHT22;15176;50.844;4.412;2023-03-17T04:35:46;12.50;93.70
27795;DHT22;15176;50.844;4.412;2023-03-17T04:38:12;12.50;94.20
27795;DHT22;15176;50.844;4.412;2023-03-17T04:40:38;12.40;94.90
27795;DHT22;15176;50.844;4.412;2023-03-17T04:43:03;12.40;94.90
27795;DHT22;15176;50.844;4.412;2023-03-17T04:45:29;12.50;94.40
27795;DHT22;15176;50.844;4.412;2023-03-17T04:47:56;12.30;94.70
27795;DHT22;15176;50.844;4.412;2023-03-17T04:50:21;12.30;95.60
27795;DHT22;15176;50.844;4.412;2023-03-17T04:52:47;12.50;94.90
27795;DHT22;15176;50.844;4.412;2023-03-17T04:55:13;12.50;95.30
27795;DHT22;15176;50.844;4.412;2023-03-17T04:57:44;12.70;94.50
27795;DHT22;15176;50.844;4.412;2023-03-17T05:00:11;12.80;94.40
27795;DHT22;15176;50.844;4.412;2023-03-17T05:02:37;12.90;94.60
27795;DHT22;15176;50.844;4.412;2023-03-17T05:05:03;12.90;94.30
27795;DHT22;15176;50.844;4.412;2023-03-17T05:07:29;12.70;94.30
27795;DHT22;15176;50.844;4.412;2023-03-17T05:09:55;12.60;94.40
27795;DHT22;15176;50.844;4.412;2023-03-17T05:12:21;12.90;94.60
27795;DHT22;15176;50.844;4.412;2023-03-17T05:14:47;12.80;94.10
27795;DHT22;15176;50.844;4.412;2023-03-17T05:17:13;13.00;94.10
27795;DHT22;15176;50.844;4.412;2023-03-17T05:19:39;13.00;93.40
27795;DHT22;15176;50.844;4.412;2023-03-17T05:22:05;13.00;94.70
27795;DHT22;15176;50.844;4.412;2023-03-17T05:24:31;13.10;93.80
27795;DHT22;15176;50.844;4.412;2023-03-17T05:26:56;13.00;94.00
27795;DHT22;15176;50.844;4.412;2023-03-17T05:29:22;13.50;93.90
27795;DHT22;15176;50.844;4.412;2023-03-17T05:31:48;13.40;93.00
27795;DHT22;15176;50.844;4.412;2023-03-17T05:34:13;13.70;93.00
27795;DHT22;15176;50.844;4.412;2023-03-17T05:36:40;14.00;92.40
27795;DHT22;15176;50.844;4.412;2023-03-17T05:39:13;13.80;92.40
27795;DHT22;15176;50.844;4.412;2023-03-17T05:41:39;13.50;92.50
27795;DHT22;15176;50.844;4.412;2023-03-17T05:44:05;13.00;93.30
27795;DHT22;15176;50.844;4.412;2023-03-17T05:46:30;12.80;94.50
27795;DHT22;15176;50.844;4.412;2023-03-17T05:48:56;13.20;94.00
27795;DHT22;15176;50.844;4.412;2023-03-17T05:51:22;13.40;93.50
27795;DHT22;15176;50.844;4.412;2023-03-17T05:53:49;13.90;94.20
27795;DHT22;15176;50.844;4.412;2023-03-17T05:56:14;14.00;92.60
27795;DHT22;15176;50.844;4.412;2023-03-17T05:58:40;14.20;91.30
27795;DHT22;15176;50.844;4.412;2023-03-17T06:01:06;14.20;92.30
27795;DHT22;15176;50.844;4.412;2023-03-17T06:03:32;14.60;92.30
27795;DHT22;15176;50.844;4.412;2023-03-17T06:05:58;14.80;89.90
27795;DHT22;15176;50.844;4.412;2023-03-17T06:08:29;14.90;90.40
27795;DHT22;15176;50.844;4.412;2023-03-17T06:10:55;14.80;88.60
27795;DHT22;15176;50.844;4.412;2023-03-17T06:13:21;14.30;90.50
27795;DHT22;15176;50.844;4.412;2023-03-17T06:15:47;14.50;90.50
27795;DHT22;15176;50.844;4.412;2023-03-17T06:18:16;14.70;90.00
27795;DHT22;15176;50.844;4.412;2023-03-17T06:20:45;14.10;90.90
27795;DHT22;15176;50.844;4.412;2023-03-17T06:23:11;13.70;91.70
27795;DHT22;15176;50.844;4.412;2023-03-17T06:25:43;13.50;93.10
27795;DHT22;15176;50.844;4.412;2023-03-17T06:28:15;13.40;92.60
27795;DHT22;15176;50.844;4.412;2023-03-17T06:30:41;13.40;93.20
27795;DHT22;15176;50.844;4.412;2023-03-17T06:33:13;13.30;93.50
27795;DHT22;15176;50.844;4.412;2023-03-17T06:35:40;13.30;93.70
27795;DHT22;15176;50.844;4.412;2023-03-17T06:38:06;13.40;93.40
27795;DHT22;15176;50.844;4.412;2023-03-17T06:40:31;13.40;94.70
27795;DHT22;15176;50.844;4.412;2023-03-17T06:42:58;13.70;94.20
27795;DHT22;15176;50.844;4.412;2023-03-17T06:45:24;14.00;93.60
27795;DHT22;15176;50.844;4.412;2023-03-17T06:47:49;14.00;92.20
27795;DHT22;15176;50.844;4.412;2023-03-17T06:50:21;13.70;93.40
27795;DHT22;15176;50.844;4.412;2023-03-17T06:52:47;13.70;93.30
27795;DHT22;15176;50.844;4.412;2023-03-17T06:55:13;13.50;93.40
27795;DHT22;15176;50.844;4.412;2023-03-17T06:57:39;13.40;93.60
27795;DHT22;15176;50.844;4.412;2023-03-17T07:00:05;13.50;93.60
27795;DHT22;15176;50.844;4.412;2023-03-17T07:02:32;13.80;93.70
27795;DHT22;15176;50.844;4.412;2023-03-17T07:04:59;13.50;93.70
27795;DHT22;15176;50.844;4.412;2023-03-17T07:07:28;13.50;93.90
27795;DHT22;15176;50.844;4.412;2023-03-17T07:09:54;13.30;94.10
27795;DHT22;15176;50.844;4.412;2023-03-17T07:12:21;13.20;95.10
27795;DHT22;15176;50.844;4.412;2023-03-17T07:14:47;13.30;95.10
27795;DHT22;15176;50.844;4.412;2023-03-17T07:17:13;13.20;95.00
27795;DHT22;15176;50.844;4.412;2023-03-17T07:19:40;13.30;95.10
27795;DHT22;15176;50.844;4.412;2023-03-17T07:22:07;13.20;95.50
27795;DHT22;15176;50.844;4.412;2023-03-17T07:24:33;13.50;94.80
27795;DHT22;15176;50.844;4.412;2023-03-17T07:27:06;13.30;95.90
27795;DHT22;15176;50.844;4.412;2023-03-17T07:29:40;13.10;95.40
27795;DHT22;15176;50.844;4.412;2023-03-17T07:32:07;13.10;96.50
27795;DHT22;15176;50.844;4.412;2023-03-17T07:34:34;13.30;96.10
27795;DHT22;15176;50.844;4.412;2023-03-17T07:37:03;13.60;95.10
27795;DHT22;15176;50.844;4.412;2023-03-17T07:39:37;13.80;95.70
27795;DHT22;15176;50.844;4.412;2023-03-17T07:42:03;13.90;95.00
27795;DHT22;15176;50.844;4.412;2023-03-17T07:44:29;13.90;94.60
27795;DHT22;15176;50.844;4.412;2023-03-17T07:46:56;13.90;95.80
27795;DHT22;15176;50.844;4.412;2023-03-17T07:49:27;14.00;94.70
27795;DHT22;15176;50.844;4.412;2023-03-17T07:51:53;13.90;94.90
27795;DHT22;15176;50.844;4.412;2023-03-17T07:54:19;14.20;94.30
27795;DHT22;15176;50.844;4.412;2023-03-17T07:56:44;14.50;93.50
27795;DHT22;15176;50.844;4.412;2023-03-17T07:59:10;14.60;93.60
27795;DHT22;15176;50.844;4.412;2023-03-17T08:01:36;14.90;93.70
27795;DHT22;15176;50.844;4.412;2023-03-17T08:04:04;15.30;92.30
27795;DHT22;15176;50.844;4.412;2023-03-17T08:06:29;15.20;92.30
27795;DHT22;15176;50.844;4.412;2023-03-17T08:08:56;15.30;92.50
27795;DHT22;15176;50.844;4.412;2023-03-17T08:11:22;15.50;92.00
27795;DHT22;15176;50.844;4.412;2023-03-17T08:13:49;15.80;91.80
27795;DHT22;15176;50.844;4.412;2023-03-17T08:16:15;15.70;91.30
27795;DHT22;15176;50.844;4.412;2023-03-17T08:18:41;15.50;91.60
27795;DHT22;15176;50.844;4.412;2023-03-17T08:21:07;15.40;92.10
27795;DHT22;15176;50.844;4.412;2023-03-17T08:23:33;15.40;92.80
27795;DHT22;15176;50.844;4.412;2023-03-17T08:26:00;15.20;92.90
27795;DHT22;15176;50.844;4.412;2023-03-17T08:28:32;15.20;92.70
27795;DHT22;15176;50.844;4.412;2023-03-17T08:31:17;15.20;93.10
27795;DHT22;15176;50.844;4.412;2023-03-17T08:33:49;15.60;92.80
27795;DHT22;15176;50.844;4.412;2023-03-17T08:36:16;15.70;91.80
27795;DHT22;15176;50.844;4.412;2023-03-17T08:38:43;15.60;92.60
27795;DHT22;15176;50.844;4.412;2023-03-17T08:41:18;15.30;92.90
27795;DHT22;15176;50.844;4.412;2023-03-17T08:43:45;15.00;93.90
27795;DHT22;15176;50.844;4.412;2023-03-17T08:46:22;15.40;93.70
27795;DHT22;15176;50.844;4.412;2023-03-17T08:48:49;15.60;92.80
27795;DHT22;15176;50.844;4.412;2023-03-17T08:51:19;15.90;92.90
27795;DHT22;15176;50.844;4.412;2023-03-17T08:53:44;15.80;92.30
27795;DHT22;15176;50.844;4.412;2023-03-17T08:56:10;15.50;93.10
27795;DHT22;15176;50.844;4.412;2023-03-17T08:58:37;15.80;93.00
27795;DHT22;15176;50.844;4.412;2023-03-17T09:01:07;16.10;91.90
27795;DHT22;15176;50.844;4.412;2023-03-17T09:03:37;15.90;92.40
27795;DHT22;15176;50.844;4.412;2023-03-17T09:06:04;15.90;93.00
27795;DHT22;15176;50.844;4.412;2023-03-17T09:08:35;16.00;92.60
27795;DHT22;15176;50.844;4.412;2023-03-17T09:11:07;15.90;92.60
27795;DHT22;15176;50.844;4.412;2023-03-17T09:13:36;15.80;93.10
27795;DHT22;15176;50.844;4.412;2023-03-17T09:16:13;16.30;93.10
27795;DHT22;15176;50.844;4.412;2023-03-17T09:18:39;16.80;91.70
27795;DHT22;15176;50.844;4.412;2023-03-17T09:21:06;16.90;91.10
27795;DHT22;15176;50.844;4.412;2023-03-17T09:23:33;16.90;91.60
27795;DHT22;15176;50.844;4.412;2023-03-17T09:25:59;16.90;91.10
27795;DHT22;15176;50.844;4.412;2023-03-17T09:28:25;16.60;91.30
27795;DHT22;15176;50.844;4.412;2023-03-17T09:30:51;16.30;92.40
27795;DHT22;15176;50.844;4.412;2023-03-17T09:33:17;16.30;93.40
27795;DHT22;15176;50.844;4.412;2023-03-17T09:35:49;16.20;93.40
27795;DHT22;15176;50.844;4.412;2023-03-17T09:38:15;16.40;93.10
27795;DHT22;15176;50.844;4.412;2023-03-17T09:41:15;16.60;92.80
27795;DHT22;15176;50.844;4.412;2023-03-17T09:43:44;16.60;92.40
27795;DHT22;15176;50.844;4.412;2023-03-17T09:49:16;17.00;91.90
27795;DHT22;15176;50.844;4.412;2023-03-17T09:51:45;17.30;91.40
27795;DHT22;15176;50.844;4.412;2023-03-17T09:54:26;17.60;90.20
27795;DHT22;15176;50.844;4.412;2023-03-17T09:57:03;17.60;91.40
27795;DHT22;15176;50.844;4.412;2023-03-17T09:59:37;17.50;90.50
27795;DHT22;15176;50.844;4.412;2023-03-17T10:02:26;17.00;91.20
27795;DHT22;15176;50.844;4.412;2023-03-17T10:04:52;16.90;91.60
27795;DHT22;15176;50.844;4.412;2023-03-17T10:07:27;17.30;90.90
27795;DHT22;15176;50.844;4.412;2023-03-17T10:10:04;17.40;90.80
27795;DHT22;15176;50.844;4.412;2023-03-17T10:15:47;18.10;89.40
27795;DHT22;15176;50.844;4.412;2023-03-17T10:18:15;18.40;87.30
27795;DHT22;15176;50.844;4.412;2023-03-17T10:20:56;19.20;86.20
27795;DHT22;15176;50.844;4.412;2023-03-17T10:23:26;19.40;83.30
27795;DHT22;15176;50.844;4.412;2023-03-17T10:25:56;19.80;82.30
27795;DHT22;15176;50.844;4.412;2023-03-17T10:28:28;20.30;80.90
27795;DHT22;15176;50.844;4.412;2023-03-17T10:31:18;20.80;77.90
27795;DHT22;15176;50.844;4.412;2023-03-17T10:33:51;20.90;77.70
27795;DHT22;15176;50.844;4.412;2023-03-17T10:36:33;20.90;76.40
27795;DHT22;15176;50.844;4.412;2023-03-17T10:39:06;21.20;74.10
27795;DHT22;15176;50.844;4.412;2023-03-17T10:41:56;21.10;74.70
27795;DHT22;15176;50.844;4.412;2023-03-17T10:44:46;21.50;73.80
27795;DHT22;15176;50.844;4.412;2023-03-17T10:49:58;22.00;70.20
27795;DHT22;15176;50.844;4.412;2023-03-17T10:52:30;22.00;70.80
27795;DHT22;15176;50.844;4.412;2023-03-17T10:55:04;22.10;71.20
27795;DHT22;15176;50.844;4.412;2023-03-17T10:57:30;21.30;71.70
27795;DHT22;15176;50.844;4.412;2023-03-17T10:59:56;20.70;75.30
27795;DHT22;15176;50.844;4.412;2023-03-17T11:02:25;21.00;75.00
27795;DHT22;15176;50.844;4.412;2023-03-17T11:05:20;20.80;75.20
27795;DHT22;15176;50.844;4.412;2023-03-17T11:07:47;20.40;76.20
27795;DHT22;15176;50.844;4.412;2023-03-17T11:10:24;20.30;77.70
27795;DHT22;15176;50.844;4.412;2023-03-17T11:12:58;20.80;76.50
27795;DHT22;15176;50.844;4.412;2023-03-17T11:18:41;20.70;76.50
27795;DHT22;15176;50.844;4.412;2023-03-17T11:21:31;20.70;76.70
27795;DHT22;15176;50.844;4.412;2023-03-17T11:24:08;20.60;77.10
27795;DHT22;15176;50.844;4.412;2023-03-17T11:43:21;21.70;74.90
27795;DHT22;15176;50.844;4.412;2023-03-17T11:51:17;21.90;72.10
27795;DHT22;15176;50.844;4.412;2023-03-17T11:54:10;21.70;71.60
27795;DHT22;15176;50.844;4.412;2023-03-17T11:56:52;21.70;72.40
27795;DHT22;15176;50.844;4.412;2023-03-17T11:59:29;21.70;72.80
27795;DHT22;15176;50.844;4.412;2023-03-17T12:07:34;22.30;72.20
27795;DHT22;15176;50.844;4.412;2023-03-17T12:10:29;22.20;70.90
27795;DHT22;15176;50.844;4.412;2023-03-17T12:18:39;22.50;69.50
27795;DHT22;15176;50.844;4.412;2023-03-17T12:29:24;23.00;67.80
27795;DHT22;15176;50.844;4.412;2023-03-17T12:31:57;23.30;66.80
27795;DHT22;15176;50.844;4.412;2023-03-17T12:34:48;23.60;67.20
27795;DHT22;15176;50.844;4.412;2023-03-17T12:37:16;23.80;64.70
27795;DHT22;15176;50.844;4.412;2023-03-17T12:40:17;23.50;64.80
27795;DHT22;15176;50.844;4.412;2023-03-17T12:42:51;23.50;66.50
27795;DHT22;15176;50.844;4.412;2023-03-17T12:48:25;24.10;62.90
27795;DHT22;15176;50.844;4.412;2023-03-17T12:53:44;23.90;62.00
27795;DHT22;15176;50.844;4.412;2023-03-17T12:56:24;23.70;62.40
27795;DHT22;15176;50.844;4.412;2023-03-17T12:59:04;23.70;63.70
27795;DHT22;15176;50.844;4.412;2023-03-17T13:01:37;23.40;63.90
27795;DHT22;15176;50.844;4.412;2023-03-17T13:04:21;23.60;62.20
27795;DHT22;15176;50.844;4.412;2023-03-17T13:07:04;23.60;61.70
27795;DHT22;15176;50.844;4.412;2023-03-17T13:12:03;23.60;61.90
27795;DHT22;15176;50.844;4.412;2023-03-17T13:14:46;24.10;60.80
27795;DHT22;15176;50.844;4.412;2023-03-17T13:25:49;23.80;60.30
27795;DHT22;15176;50.844;4.412;2023-03-17T13:34:07;24.20;59.00
27795;DHT22;15176;50.844;4.412;2023-03-17T13:47:36;22.80;62.10
27795;DHT22;15176;50.844;4.412;2023-03-17T13:50:12;22.90;63.10
27795;DHT22;15176;50.844;4.412;2023-03-17T13:55:28;22.10;63.10
27795;DHT22;15176;50.844;4.412;2023-03-17T14:00:35;21.50;65.70
27795;DHT22;15176;50.844;4.412;2023-03-17T14:03:10;21.20;67.90
27795;DHT22;15176;50.844;4.412;2023-03-17T14:05:38;21.70;68.00
27795;DHT22;15176;50.844;4.412;2023-03-17T14:08:12;21.80;67.10
27795;DHT22;15176;50.844;4.412;2023-03-17T14:10:41;21.40;67.40
27795;DHT22;15176;50.844;4.412;2023-03-17T14:13:29;21.20;69.30
27795;DHT22;15176;50.844;4.412;2023-03-17T14:16:13;21.40;68.50
27795;DHT22;15176;50.844;4.412;2023-03-17T14:18:52;21.30;69.90
27795;DHT22;15176;50.844;4.412;2023-03-17T14:21:24;21.60;67.50
27795;DHT22;15176;50.844;4.412;2023-03-17T14:23:55;21.60;66.80
27795;DHT22;15176;50.844;4.412;2023-03-17T14:26:25;21.50;68.10
27795;DHT22;15176;50.844;4.412;2023-03-17T14:28:52;21.30;67.30
27795;DHT22;15176;50.844;4.412;2023-03-17T14:31:26;20.70;69.40
27795;DHT22;15176;50.844;4.412;2023-03-17T14:34:00;20.90;69.50
27795;DHT22;15176;50.844;4.412;2023-03-17T14:36:31;20.60;72.00
27795;DHT22;15176;50.844;4.412;2023-03-17T14:39:05;20.80;69.00
27795;DHT22;15176;50.844;4.412;2023-03-17T14:42:02;20.70;70.70
27795;DHT22;15176;50.844;4.412;2023-03-17T14:44:36;20.50;70.40
27795;DHT22;15176;50.844;4.412;2023-03-17T14:47:04;20.20;72.90
27795;DHT22;15176;50.844;4.412;2023-03-17T14:49:32;20.10;73.40
27795;DHT22;15176;50.844;4.412;2023-03-17T14:51:59;20.20;73.60
27795;DHT22;15176;50.844;4.412;2023-03-17T14:54:25;20.30;74.70
27795;DHT22;15176;50.844;4.412;2023-03-17T14:56:55;20.40;73.90
27795;DHT22;15176;50.844;4.412;2023-03-17T15:02:27;20.90;71.80
27795;DHT22;15176;50.844;4.412;2023-03-17T15:04:58;20.80;72.20
27795;DHT22;15176;50.844;4.412;2023-03-17T15:07:47;20.60;72.90
27795;DHT22;15176;50.844;4.412;2023-03-17T15:10:40;20.40;73.90
27795;DHT22;15176;50.844;4.412;2023-03-17T15:13:09;20.20;75.60
27795;DHT22;15176;50.844;4.412;2023-03-17T15:15:37;20.60;75.10
27795;DHT22;15176;50.844;4.412;2023-03-17T15:18:09;20.10;75.30
27795;DHT22;15176;50.844;4.412;2023-03-17T15:20:35;19.70;76.50
27795;DHT22;15176;50.844;4.412;2023-03-17T15:23:15;19.60;77.50
27795;DHT22;15176;50.844;4.412;2023-03-17T15:25:45;19.70;76.40
27795;DHT22;15176;50.844;4.412;2023-03-17T15:28:24;19.20;78.00
27795;DHT22;15176;50.844;4.412;2023-03-17T15:30:52;19.30;78.20
27795;DHT22;15176;50.844;4.412;2023-03-17T15:36:01;19.30;78.30
27795;DHT22;15176;50.844;4.412;2023-03-17T15:38:27;19.20;78.40
27795;DHT22;15176;50.844;4.412;2023-03-17T15:40:54;19.10;80.00
27795;DHT22;15176;50.844;4.412;2023-03-17T15:43:20;18.90;80.50
27795;DHT22;15176;50.844;4.412;2023-03-17T15:45:48;18.90;81.60
27795;DHT22;15176;50.844;4.412;2023-03-17T15:48:21;19.00;82.10
27795;DHT22;15176;50.844;4.412;2023-03-17T15:50:50;18.90;83.00
27795;DHT22;15176;50.844;4.412;2023-03-17T15:53:18;19.10;81.20
27795;DHT22;15176;50.844;4.412;2023-03-17T15:55:43;19.00;82.80
27795;DHT22;15176;50.844;4.412;2023-03-17T15:58:17;18.80;82.60
27795;DHT22;15176;50.844;4.412;2023-03-17T16:00:45;18.70;83.00
27795;DHT22;15176;50.844;4.412;2023-03-17T16:03:23;18.50;84.20
27795;DHT22;15176;50.844;4.412;2023-03-17T16:05:53;18.30;84.30
27795;DHT22;15176;50.844;4.412;2023-03-17T16:08:20;18.40;86.60
27795;DHT22;15176;50.844;4.412;2023-03-17T16:10:46;18.60;86.10
27795;DHT22;15176;50.844;4.412;2023-03-17T16:13:12;18.50;84.10
27795;DHT22;15176;50.844;4.412;2023-03-17T16:15:40;18.20;85.90
27795;DHT22;15176;50.844;4.412;2023-03-17T16:18:11;18.10;86.90
27795;DHT22;15176;50.844;4.412;2023-03-17T16:20:47;18.10;87.90
27795;DHT22;15176;50.844;4.412;2023-03-17T16:23:30;17.90;88.70
27795;DHT22;15176;50.844;4.412;2023-03-17T16:25:56;18.00;88.90
27795;DHT22;15176;50.844;4.412;2023-03-17T16:28:30;18.00;88.80
27795;DHT22;15176;50.844;4.412;2023-03-17T16:30:57;18.50;86.90
27795;DHT22;15176;50.844;4.412;2023-03-17T16:33:32;18.30;87.40
27795;DHT22;15176;50.844;4.412;2023-03-17T16:36:00;18.20;87.30
27795;DHT22;15176;50.844;4.412;2023-03-17T16:38:33;18.10;88.90
27795;DHT22;15176;50.844;4.412;2023-03-17T16:41:04;17.80;89.20
27795;DHT22;15176;50.844;4.412;2023-03-17T16:43:34;17.80;90.20
27795;DHT22;15176;50.844;4.412;2023-03-17T16:46:05;18.00;90.10
27795;DHT22;15176;50.844;4.412;2023-03-17T16:48:31;17.80;90.10
27795;DHT22;15176;50.844;4.412;2023-03-17T16:51:04;17.70;89.80
27795;DHT22;15176;50.844;4.412;2023-03-17T16:53:36;17.70;90.00
27795;DHT22;15176;50.844;4.412;2023-03-17T16:56:09;17.80;90.30
27795;DHT22;15176;50.844;4.412;2023-03-17T16:58:37;17.90;90.50
27795;DHT22;15176;50.844;4.412;2023-03-17T17:01:10;17.80;90.40
27795;DHT22;15176;50.844;4.412;2023-03-17T17:03:36;17.60;90.00
27795;DHT22;15176;50.844;4.412;2023-03-17T17:06:03;17.50;90.60
27795;DHT22;15176;50.844;4.412;2023-03-17T17:08:30;17.50;91.00
27795;DHT22;15176;50.844;4.412;2023-03-17T17:11:02;17.40;91.10
27795;DHT22;15176;50.844;4.412;2023-03-17T17:13:28;17.30;91.20
27795;DHT22;15176;50.844;4.412;2023-03-17T17:15:54;17.70;91.30
27795;DHT22;15176;50.844;4.412;2023-03-17T17:18:21;17.80;91.00
27795;DHT22;15176;50.844;4.412;2023-03-17T17:20:49;17.90;90.50
27795;DHT22;15176;50.844;4.412;2023-03-17T17:23:18;18.20;89.40
27795;DHT22;15176;50.844;4.412;2023-03-17T17:25:44;18.00;90.10
27795;DHT22;15176;50.844;4.412;2023-03-17T17:28:19;18.30;89.40
27795;DHT22;15176;50.844;4.412;2023-03-17T17:30:47;18.40;89.70
27795;DHT22;15176;50.844;4.412;2023-03-17T17:33:14;17.90;90.40